createdAt,value
2022-12-03T00:02:14.014Z,78.95
2022-12-03T00:04:40.669Z,78.94
2022-12-03T00:07:07.452Z,78.97
2022-12-03T00:09:34.038Z,78.85
2022-12-03T00:12:00.606Z,78.91
2022-12-03T00:14:27.247Z,79.10
2022-12-03T00:16:53.878Z,79.13
2022-12-03T00:19:20.478Z,79.07
2022-12-03T00:21:47.087Z,79.19
2022-12-03T00:24:13.701Z,79.30
2022-12-03T00:26:40.405Z,79.12
2022-12-03T00:29:07.198Z,79.06
2022-12-03T00:31:33.885Z,79.14
2022-12-03T00:34:00.622Z,79.14
2022-12-03T00:36:27.295Z,79.17
2022-12-03T00:38:53.892Z,79.16
2022-12-03T00:41:20.502Z,79.12
2022-12-03T00:43:47.131Z,79.05
2022-12-03T00:46:18.188Z,79.00
2022-12-03T00:48:47.700Z,78.99
2022-12-03T00:51:14.246Z,79.19
2022-12-03T00:53:40.808Z,79.34
2022-12-03T00:56:08.172Z,79.27
2022-12-03T00:58:35.213Z,79.17
2022-12-03T01:01:01.962Z,79.25
2022-12-03T01:03:29.214Z,79.38
2022-12-03T01:05:55.893Z,79.38
2022-12-03T01:08:22.441Z,79.38
2022-12-03T01:10:49.054Z,79.33
2022-12-03T01:13:15.565Z,79.40
2022-12-03T01:15:42.270Z,79.40
2022-12-03T01:18:08.926Z,79.38
2022-12-03T01:20:36.503Z,79.43
2022-12-03T01:23:03.218Z,79.39
2022-12-03T01:25:29.977Z,79.38
2022-12-03T01:27:56.643Z,79.51
2022-12-03T01:30:23.267Z,79.60
2022-12-03T01:32:49.921Z,79.69
2022-12-03T01:35:16.867Z,79.79
2022-12-03T01:37:43.544Z,79.90
2022-12-03T01:40:15.722Z,80.01
2022-12-03T01:42:42.602Z,80.05
2022-12-03T01:45:22.743Z,79.99
2022-12-03T01:47:49.769Z,80.37
2022-12-03T01:50:27.819Z,80.51
2022-12-03T01:52:56.511Z,80.48
2022-12-03T01:55:25.344Z,80.46
2022-12-03T01:58:00.015Z,80.55
2022-12-03T02:00:28.772Z,80.57
2022-12-03T02:03:00.111Z,80.50
2022-12-03T02:05:30.250Z,80.52
2022-12-03T02:07:57.762Z,80.57
2022-12-03T02:10:36.236Z,80.63
2022-12-03T02:13:10.839Z,80.73
2022-12-03T02:15:40.192Z,80.73
2022-12-03T02:18:09.121Z,80.80
2022-12-03T02:21:16.998Z,80.67
2022-12-03T02:24:14.480Z,80.31
2022-12-03T02:26:41.243Z,80.07
2022-12-03T02:29:07.986Z,80.04
2022-12-03T02:31:34.695Z,79.99
2022-12-03T02:34:07.279Z,79.89
2022-12-03T02:36:36.007Z,80.04
2022-12-03T02:39:04.251Z,80.18
2022-12-03T02:41:49.587Z,80.34
2022-12-03T02:44:16.250Z,80.59
2022-12-03T02:46:43.033Z,80.53
2022-12-03T02:49:09.828Z,80.63
2022-12-03T02:51:37.444Z,80.63
2022-12-03T02:54:04.368Z,80.54
2022-12-03T02:56:32.648Z,80.53
2022-12-03T02:59:03.846Z,80.81
2022-12-03T03:01:30.992Z,80.72
2022-12-03T03:03:58.820Z,80.70
2022-12-03T03:06:25.506Z,80.94
2022-12-03T03:08:52.511Z,81.04
2022-12-03T03:11:19.232Z,80.89
2022-12-03T03:13:46.061Z,80.87
2022-12-03T03:16:12.740Z,80.75
2022-12-03T03:18:39.697Z,80.77
2022-12-03T03:21:06.689Z,80.62
2022-12-03T03:23:33.724Z,80.57
2022-12-03T03:26:07.864Z,80.65
2022-12-03T03:28:42.714Z,80.74
2022-12-03T03:31:12.914Z,80.85
2022-12-03T03:33:41.992Z,80.72
2022-12-03T03:36:09.497Z,80.79
2022-12-03T03:38:37.255Z,80.85
2022-12-03T03:41:07.894Z,80.88
2022-12-03T03:43:37.582Z,80.74
2022-12-03T03:46:06.604Z,80.73
2022-12-03T03:48:34.816Z,80.70
2022-12-03T03:51:04.212Z,80.70
2022-12-03T03:53:31.052Z,80.59
2022-12-03T03:55:57.832Z,80.58
2022-12-03T03:58:24.429Z,80.68
2022-12-03T04:00:51.920Z,80.82
2022-12-03T04:03:18.490Z,80.70
2022-12-03T04:05:45.126Z,80.57
2022-12-03T04:08:11.716Z,80.59
2022-12-03T04:10:57.505Z,80.60
2022-12-03T04:13:24.235Z,80.70
2022-12-03T04:15:50.948Z,80.79
2022-12-03T04:18:36.350Z,80.80
2022-12-03T04:21:21.853Z,80.84
2022-12-03T04:23:48.510Z,80.87
2022-12-03T04:26:34.160Z,80.98
2022-12-03T04:29:00.951Z,80.98
2022-12-03T04:31:47.827Z,81.00
2022-12-03T04:34:33.686Z,81.10
2022-12-03T04:37:00.352Z,81.11
2022-12-03T04:39:27.017Z,81.17
2022-12-03T04:41:53.701Z,81.39
2022-12-03T04:44:38.592Z,81.47
2022-12-03T04:47:17.642Z,81.49
2022-12-03T04:49:50.921Z,81.60
2022-12-03T04:52:20.440Z,81.50
2022-12-03T04:54:47.497Z,81.51
2022-12-03T04:57:14.095Z,81.60
2022-12-03T04:59:41.300Z,81.60
2022-12-03T05:02:08.220Z,81.55
2022-12-03T05:04:34.974Z,81.51
2022-12-03T05:07:01.982Z,81.41
2022-12-03T05:09:28.640Z,81.56
2022-12-03T05:11:55.281Z,81.67
2022-12-03T05:14:21.848Z,81.81
2022-12-03T05:16:48.628Z,81.93
2022-12-03T05:19:15.493Z,82.12
2022-12-03T05:21:42.033Z,82.21
2022-12-03T05:24:08.746Z,82.34
2022-12-03T05:26:35.378Z,82.24
2022-12-03T05:29:02.018Z,82.25
2022-12-03T05:31:28.650Z,82.38
2022-12-03T05:33:55.318Z,82.37
2022-12-03T05:36:21.998Z,82.40
2022-12-03T05:38:48.725Z,82.52
2022-12-03T05:41:34.458Z,82.55
2022-12-03T05:44:01.207Z,82.51
2022-12-03T05:46:27.911Z,82.46
2022-12-03T05:48:55.229Z,82.37
2022-12-03T05:51:21.809Z,82.30
2022-12-03T05:53:48.435Z,82.29
2022-12-03T05:56:15.062Z,82.28
2022-12-03T05:58:41.703Z,82.38
2022-12-03T06:01:08.381Z,82.49
2022-12-03T06:03:35.096Z,82.53
2022-12-03T06:06:02.018Z,82.54
2022-12-03T06:08:28.610Z,82.57
2022-12-03T06:10:55.240Z,82.59
2022-12-03T06:13:21.871Z,82.71
2022-12-03T06:15:48.555Z,83.02
2022-12-03T06:18:15.253Z,82.85
2022-12-03T06:20:41.895Z,82.66
2022-12-03T06:23:08.549Z,82.66
2022-12-03T06:25:35.142Z,82.93
2022-12-03T06:28:01.803Z,82.88
2022-12-03T06:30:28.566Z,82.82
2022-12-03T06:32:57.765Z,82.87
2022-12-03T06:35:24.385Z,82.86
2022-12-03T06:37:50.997Z,82.93
2022-12-03T06:40:17.573Z,82.83
2022-12-03T06:42:44.409Z,82.47
2022-12-03T06:45:12.055Z,82.56
2022-12-03T06:47:38.801Z,82.43
2022-12-03T06:50:08.107Z,82.31
2022-12-03T06:52:35.726Z,82.23
2022-12-03T06:55:02.426Z,82.20
2022-12-03T06:57:29.231Z,82.23
2022-12-03T06:59:56.231Z,82.30
2022-12-03T07:02:23.135Z,82.18
2022-12-03T07:04:49.871Z,82.07
2022-12-03T07:07:16.528Z,82.03
2022-12-03T07:09:43.167Z,82.00
2022-12-03T07:12:10.288Z,82.00
2022-12-03T07:14:37.661Z,82.13
2022-12-03T07:17:04.248Z,82.15
2022-12-03T07:19:32.867Z,82.32
2022-12-03T07:22:00.538Z,82.28
2022-12-03T07:24:27.788Z,82.37
2022-12-03T07:26:54.492Z,82.21
2022-12-03T07:29:21.160Z,82.18
2022-12-03T07:31:48.026Z,82.51
2022-12-03T07:34:14.733Z,82.39
2022-12-03T07:36:41.449Z,82.07
2022-12-03T07:39:08.055Z,81.64
2022-12-03T07:41:34.915Z,81.95
2022-12-03T07:44:01.476Z,81.90
2022-12-03T07:46:28.247Z,81.83
2022-12-03T07:48:54.933Z,81.66
2022-12-03T07:51:23.434Z,81.45
2022-12-03T07:53:53.164Z,81.45
2022-12-03T07:56:19.802Z,81.62
2022-12-03T07:58:46.429Z,81.61
2022-12-03T08:01:13.287Z,81.41
2022-12-03T08:03:39.957Z,81.54
2022-12-03T08:06:06.774Z,81.65
2022-12-03T08:08:33.370Z,81.56
2022-12-03T08:11:02.193Z,81.50
2022-12-03T08:13:28.819Z,81.64
2022-12-03T08:15:57.507Z,81.65
2022-12-03T08:18:24.121Z,82.04
2022-12-03T08:20:52.439Z,81.47
2022-12-03T08:23:23.179Z,81.37
2022-12-03T08:25:52.595Z,81.30
2022-12-03T08:28:24.139Z,81.35
2022-12-03T08:31:18.248Z,81.78
2022-12-03T08:33:47.799Z,81.39
2022-12-03T08:36:26.538Z,81.36
2022-12-03T08:39:07.125Z,81.43
2022-12-03T08:41:53.951Z,81.42
2022-12-03T08:44:30.559Z,81.35
2022-12-03T08:47:07.311Z,81.13
2022-12-03T08:49:34.044Z,81.10
2022-12-03T08:52:11.593Z,81.13
2022-12-03T08:54:38.315Z,81.26
2022-12-03T08:57:37.316Z,81.18
2022-12-03T09:00:20.152Z,81.62
2022-12-03T09:02:51.861Z,81.17
2022-12-03T09:05:30.373Z,80.94
2022-12-03T09:07:56.982Z,81.16
2022-12-03T09:10:23.727Z,81.09
2022-12-03T09:12:50.475Z,81.01
2022-12-03T09:15:17.453Z,81.11
2022-12-03T09:17:44.225Z,81.30
2022-12-03T09:20:11.359Z,81.45
2022-12-03T09:22:38.156Z,81.15
2022-12-03T09:25:05.444Z,80.99
2022-12-03T09:27:32.120Z,80.99
2022-12-03T09:29:58.966Z,81.05
2022-12-03T09:32:26.110Z,80.83
2022-12-03T09:34:54.317Z,80.86
2022-12-03T09:37:22.209Z,80.61
2022-12-03T09:39:48.929Z,80.20
2022-12-03T09:42:15.798Z,80.08
2022-12-03T09:44:42.519Z,80.22
2022-12-03T09:47:09.373Z,80.06
2022-12-03T09:49:37.911Z,79.89
2022-12-03T09:52:06.479Z,80.07
2022-12-03T09:54:34.608Z,80.21
2022-12-03T09:57:04.284Z,80.13
2022-12-03T09:59:34.361Z,80.09
2022-12-03T10:02:02.833Z,80.13
2022-12-03T10:04:30.488Z,79.95
2022-12-03T10:06:58.555Z,80.08
2022-12-03T10:09:28.926Z,80.22
2022-12-03T10:11:57.720Z,80.10
2022-12-03T10:14:24.520Z,79.89
2022-12-03T10:16:51.477Z,80.24
2022-12-03T10:19:28.654Z,80.40
2022-12-03T10:21:55.765Z,80.38
2022-12-03T10:24:28.989Z,80.38
2022-12-03T10:27:05.322Z,80.58
2022-12-03T10:29:35.699Z,80.28
2022-12-03T10:32:12.894Z,79.70
2022-12-03T10:34:42.209Z,79.74
2022-12-03T10:37:22.485Z,79.37
2022-12-03T10:40:12.458Z,79.20
2022-12-03T10:42:41.242Z,78.96
2022-12-03T10:45:22.795Z,78.92
2022-12-03T10:48:12.950Z,78.96
2022-12-03T10:50:49.628Z,79.19
2022-12-03T10:53:17.396Z,79.06
2022-12-03T10:55:46.266Z,78.76
2022-12-03T10:58:38.602Z,78.65
2022-12-03T11:01:19.230Z,78.57
2022-12-03T11:03:46.744Z,78.35
2022-12-03T11:06:20.585Z,78.40
2022-12-03T11:08:58.402Z,78.32
2022-12-03T11:11:30.437Z,78.22
2022-12-03T11:14:00.095Z,78.23
2022-12-03T11:16:39.042Z,78.48
2022-12-03T11:19:19.485Z,78.83
2022-12-03T11:22:10.068Z,78.97
2022-12-03T11:24:39.598Z,78.99
2022-12-03T11:27:10.767Z,79.03
2022-12-03T11:29:44.714Z,79.18
2022-12-03T11:32:11.447Z,79.07
2022-12-03T11:34:41.321Z,78.99
2022-12-03T11:37:11.141Z,78.94
2022-12-03T11:39:50.160Z,79.02
2022-12-03T11:42:25.282Z,79.05
2022-12-03T11:45:39.383Z,79.17
2022-12-03T11:48:15.463Z,78.87
2022-12-03T11:50:50.143Z,79.03
2022-12-03T11:53:26.253Z,79.16
2022-12-03T11:56:08.396Z,79.24
2022-12-03T11:58:43.023Z,78.96
2022-12-03T12:01:10.203Z,78.74
2022-12-03T12:03:43.765Z,78.36
2022-12-03T12:06:19.768Z,78.68
2022-12-03T12:08:52.133Z,78.93
2022-12-03T12:11:33.914Z,78.95
2022-12-03T12:14:04.330Z,78.84
2022-12-03T12:16:52.413Z,78.86
2022-12-03T12:19:43.233Z,78.94
2022-12-03T12:22:20.552Z,78.88
2022-12-03T12:24:56.359Z,78.81
2022-12-03T12:27:47.242Z,78.57
2022-12-03T12:30:17.667Z,78.49
2022-12-03T12:33:12.574Z,78.48
2022-12-03T12:35:39.186Z,78.48
2022-12-03T12:38:11.272Z,78.51
2022-12-03T12:40:41.350Z,78.56
2022-12-03T12:43:15.285Z,78.58
2022-12-03T12:45:44.015Z,78.55
2022-12-03T12:48:16.312Z,78.52
2022-12-03T12:50:46.872Z,78.58
2022-12-03T12:53:31.942Z,78.67
2022-12-03T12:56:02.431Z,78.86
2022-12-03T12:58:32.951Z,79.18
2022-12-03T13:01:06.172Z,79.38
2022-12-03T13:03:37.371Z,79.45
2022-12-03T13:06:04.489Z,79.43
2022-12-03T13:08:40.813Z,79.57
2022-12-03T13:11:42.296Z,79.56
2022-12-03T13:14:22.935Z,79.66
2022-12-03T13:16:52.290Z,79.55
2022-12-03T13:19:32.623Z,79.47
2022-12-03T13:22:16.024Z,79.55
2022-12-03T13:24:46.619Z,79.64
2022-12-03T13:27:16.183Z,79.41
2022-12-03T13:29:43.524Z,79.38
2022-12-03T13:32:21.143Z,79.48
2022-12-03T13:34:50.547Z,79.50
2022-12-03T13:37:27.007Z,79.33
2022-12-03T13:39:58.163Z,79.48
2022-12-03T13:42:39.276Z,79.59
2022-12-03T13:45:15.073Z,79.58
2022-12-03T13:47:50.644Z,79.47
2022-12-03T13:50:43.878Z,79.59
2022-12-03T13:53:22.440Z,79.71
2022-12-03T13:56:17.345Z,79.66
2022-12-03T13:58:43.912Z,79.62
2022-12-03T14:01:10.561Z,79.74
2022-12-03T14:03:37.206Z,80.07
2022-12-03T14:06:03.859Z,80.28
2022-12-03T14:08:30.526Z,80.30
2022-12-03T14:11:00.361Z,80.35
2022-12-03T14:13:28.168Z,80.43
2022-12-03T14:15:54.948Z,80.54
2022-12-03T14:18:21.581Z,80.45
2022-12-03T14:20:48.374Z,80.44
2022-12-03T14:23:15.435Z,80.53
2022-12-03T14:25:43.946Z,80.47
2022-12-03T14:28:10.915Z,80.30
2022-12-03T14:30:37.914Z,80.20
2022-12-03T14:33:04.766Z,80.17
2022-12-03T14:35:31.432Z,80.07
2022-12-03T14:37:58.015Z,79.98
2022-12-03T14:40:24.639Z,79.89
2022-12-03T14:42:51.272Z,79.68
2022-12-03T14:45:17.934Z,79.74
2022-12-03T14:47:44.545Z,79.87
2022-12-03T14:50:14.299Z,79.82
2022-12-03T14:52:41.474Z,79.75
2022-12-03T14:55:08.759Z,79.66
2022-12-03T14:57:36.957Z,79.60
2022-12-03T15:00:06.093Z,79.69
2022-12-03T15:02:33.100Z,79.88
2022-12-03T15:04:59.815Z,79.99
2022-12-03T15:07:26.453Z,80.09
2022-12-03T15:09:53.432Z,80.18
2022-12-03T15:12:20.321Z,80.32
2022-12-03T15:14:47.667Z,80.59
2022-12-03T15:17:14.490Z,80.74
2022-12-03T15:19:41.535Z,80.85
2022-12-03T15:22:08.070Z,80.87
2022-12-03T15:24:34.625Z,80.72
2022-12-03T15:27:01.249Z,80.61
2022-12-03T15:29:27.845Z,80.64
2022-12-03T15:31:54.729Z,80.77
2022-12-03T15:34:23.124Z,80.80
2022-12-03T15:36:51.244Z,80.96
2022-12-03T15:39:17.928Z,81.05
2022-12-03T15:41:44.629Z,81.18
2022-12-03T15:44:11.268Z,81.28
2022-12-03T15:46:37.856Z,81.31
2022-12-03T15:49:04.551Z,81.23
2022-12-03T15:51:31.285Z,81.26
2022-12-03T15:53:57.889Z,81.38
2022-12-03T15:56:24.872Z,81.57
2022-12-03T15:58:51.491Z,81.53
2022-12-03T16:01:18.599Z,81.52
2022-12-03T16:03:45.333Z,81.53
2022-12-03T16:06:12.774Z,81.57
2022-12-03T16:08:39.407Z,81.58
2022-12-03T16:11:06.158Z,81.57
2022-12-03T16:13:32.826Z,81.49
2022-12-03T16:15:59.588Z,81.56
2022-12-03T16:18:26.389Z,81.51
2022-12-03T16:20:53.082Z,81.43
2022-12-03T16:23:19.816Z,81.40
2022-12-03T16:25:46.584Z,81.40
2022-12-03T16:28:13.399Z,81.40
2022-12-03T16:30:39.996Z,81.20
2022-12-03T16:33:06.625Z,80.87
2022-12-03T16:35:33.350Z,80.71
2022-12-03T16:38:00.002Z,80.74
2022-12-03T16:40:26.809Z,80.94
2022-12-03T16:42:53.387Z,80.90
2022-12-03T16:45:33.438Z,80.93
2022-12-03T16:48:01.681Z,80.99
2022-12-03T16:50:30.249Z,81.15
2022-12-03T16:52:58.082Z,81.41
2022-12-03T16:55:24.911Z,81.52
2022-12-03T16:57:51.497Z,80.90
2022-12-03T17:00:18.530Z,80.29
2022-12-03T17:02:45.172Z,80.11
2022-12-03T17:05:12.054Z,79.94
2022-12-03T17:07:39.048Z,80.22
2022-12-03T17:10:06.603Z,80.76
2022-12-03T17:13:07.212Z,81.10
2022-12-03T17:15:20.402Z,81.39
2022-12-03T17:17:47.151Z,81.71
2022-12-03T17:20:14.842Z,81.87
2022-12-03T17:22:41.931Z,81.88
2022-12-03T17:25:09.872Z,82.04
2022-12-03T17:27:43.440Z,82.21
2022-12-03T17:30:13.141Z,82.22
2022-12-03T17:32:40.209Z,82.36
2022-12-03T17:35:08.975Z,82.46
2022-12-03T17:37:36.316Z,82.45
2022-12-03T17:40:06.393Z,82.32
2022-12-03T17:42:33.066Z,82.26
2022-12-03T17:44:59.661Z,82.00
2022-12-03T17:47:26.327Z,81.99
2022-12-03T17:49:53.368Z,81.87
2022-12-03T17:52:20.598Z,81.77
2022-12-03T17:55:09.916Z,81.71
2022-12-03T17:57:33.899Z,81.67
2022-12-03T18:00:00.565Z,81.58
2022-12-03T18:02:27.276Z,81.43
2022-12-03T18:04:53.845Z,81.49
2022-12-03T18:07:20.550Z,81.63
2022-12-03T18:09:47.091Z,81.76
2022-12-03T18:12:13.660Z,82.05
2022-12-03T18:14:40.211Z,82.09
2022-12-03T18:17:06.856Z,82.09
2022-12-03T18:19:33.549Z,82.04
2022-12-03T18:22:00.172Z,82.25
2022-12-03T18:24:26.922Z,82.49
2022-12-03T18:26:53.562Z,82.77
2022-12-03T18:29:20.182Z,82.79
2022-12-03T18:31:48.025Z,82.70
2022-12-03T18:34:14.735Z,82.54
2022-12-03T18:36:41.431Z,82.50
2022-12-03T18:39:27.335Z,82.42
2022-12-03T18:41:54.293Z,82.32
2022-12-03T18:44:21.311Z,82.44
2022-12-03T18:46:55.405Z,82.47
2022-12-03T18:49:22.224Z,82.37
2022-12-03T18:51:51.205Z,82.65
2022-12-03T18:54:21.014Z,82.79
2022-12-03T18:56:47.698Z,82.87
2022-12-03T18:59:14.367Z,82.99
2022-12-03T19:01:41.030Z,83.06
2022-12-03T19:04:09.778Z,83.33
2022-12-03T19:06:36.327Z,83.53
2022-12-03T19:09:02.928Z,83.62
2022-12-03T19:11:29.615Z,83.49
2022-12-03T19:13:57.411Z,83.52
2022-12-03T19:16:24.591Z,83.46
2022-12-03T19:18:53.198Z,83.55
2022-12-03T19:21:19.830Z,83.52
2022-12-03T19:24:16.042Z,83.54
2022-12-03T19:26:33.470Z,83.50
2022-12-03T19:29:00.022Z,83.22
2022-12-03T19:31:26.781Z,83.11
2022-12-03T19:33:54.389Z,83.04
2022-12-03T19:36:30.728Z,82.94
2022-12-03T19:39:00.500Z,82.77
2022-12-03T19:41:30.676Z,82.25
2022-12-03T19:43:58.853Z,82.28
2022-12-03T19:46:31.117Z,82.53
2022-12-03T19:48:57.921Z,82.61
2022-12-03T19:51:34.756Z,82.69
2022-12-03T19:54:05.311Z,82.71
2022-12-03T19:56:32.148Z,82.75
2022-12-03T19:58:58.822Z,82.66
2022-12-03T20:01:29.269Z,82.60
2022-12-03T20:03:58.985Z,82.49
2022-12-03T20:06:29.131Z,82.52
2022-12-03T20:09:06.523Z,82.55
2022-12-03T20:11:35.366Z,82.50
2022-12-03T20:14:07.226Z,82.39
2022-12-03T20:16:35.416Z,82.26
2022-12-03T20:19:06.851Z,81.99
2022-12-03T20:21:36.914Z,81.86
2022-12-03T20:24:05.309Z,81.85
2022-12-03T20:26:32.074Z,81.81
2022-12-03T20:28:59.394Z,81.93
2022-12-03T20:31:29.891Z,82.05
2022-12-03T20:34:00.384Z,82.06
2022-12-03T20:36:28.996Z,81.99
2022-12-03T20:38:58.726Z,82.01
2022-12-03T20:41:26.003Z,82.08
2022-12-03T20:43:53.840Z,82.23
2022-12-03T20:46:31.170Z,82.30
2022-12-03T20:48:59.492Z,82.31
2022-12-03T20:51:30.122Z,82.42
2022-12-03T20:53:58.481Z,82.41
2022-12-03T20:56:35.279Z,82.34
2022-12-03T20:59:05.989Z,82.30
2022-12-03T21:01:34.330Z,82.34
2022-12-03T21:04:03.202Z,82.34
2022-12-03T21:06:30.024Z,82.41
2022-12-03T21:08:59.368Z,82.36
2022-12-03T21:11:32.380Z,82.22
2022-12-03T21:14:00.391Z,82.20
2022-12-03T21:17:05.972Z,82.12
2022-12-03T21:19:20.276Z,82.07
2022-12-03T21:21:46.885Z,81.96
2022-12-03T21:24:13.863Z,81.87
2022-12-03T21:26:41.398Z,81.73
2022-12-03T21:29:08.880Z,81.86
2022-12-03T21:31:37.343Z,81.84
2022-12-03T21:34:05.158Z,81.98
2022-12-03T21:36:32.461Z,82.07
2022-12-03T21:38:59.747Z,82.02
2022-12-03T21:41:26.879Z,82.13
2022-12-03T21:43:53.882Z,82.06
2022-12-03T21:47:10.097Z,81.96
2022-12-03T21:49:07.569Z,81.83
2022-12-03T21:51:34.258Z,81.96
2022-12-03T21:54:00.984Z,82.09
2022-12-03T21:56:30.437Z,82.17
2022-12-03T21:58:57.128Z,82.10
2022-12-03T22:01:24.977Z,82.10
2022-12-03T22:03:51.824Z,82.10
2022-12-03T22:06:19.404Z,82.22
2022-12-03T22:08:46.968Z,82.33
2022-12-03T22:11:19.238Z,82.37
2022-12-03T22:13:46.710Z,82.30
2022-12-03T22:16:19.182Z,82.26
2022-12-03T22:18:46.018Z,82.30
2022-12-03T22:21:16.814Z,82.20
2022-12-03T22:23:44.393Z,82.20
2022-12-03T22:26:14.812Z,82.28
2022-12-03T22:28:46.669Z,82.22
2022-12-03T22:31:14.578Z,82.78
2022-12-03T22:33:41.846Z,83.00
2022-12-03T22:36:19.620Z,82.95
2022-12-03T22:38:49.017Z,82.74
2022-12-03T22:41:16.093Z,82.65
2022-12-03T22:43:43.170Z,82.88
2022-12-03T22:46:12.767Z,83.02
2022-12-03T22:48:42.385Z,83.19
2022-12-03T22:51:14.589Z,83.11
2022-12-03T22:53:41.218Z,83.12
2022-12-03T22:56:08.126Z,83.14
2022-12-03T22:58:34.923Z,83.37
2022-12-03T23:01:03.143Z,83.35
2022-12-03T23:03:30.938Z,83.25
2022-12-03T23:05:57.586Z,83.13
2022-12-03T23:08:24.187Z,83.13
2022-12-03T23:10:52.946Z,83.10
2022-12-03T23:13:20.737Z,83.07
2022-12-03T23:15:50.534Z,83.16
2022-12-03T23:18:19.333Z,83.28
2022-12-03T23:20:52.180Z,83.23
2022-12-03T23:23:21.640Z,83.13
2022-12-03T23:26:03.216Z,83.05
2022-12-03T23:28:32.191Z,82.89
2022-12-03T23:30:59.475Z,82.80
2022-12-03T23:33:26.360Z,82.71
2022-12-03T23:35:52.989Z,82.69
2022-12-03T23:38:19.660Z,82.63
2022-12-03T23:40:48.204Z,82.81
2022-12-03T23:43:16.310Z,82.86
2022-12-03T23:45:42.970Z,82.84
2022-12-03T23:48:09.712Z,82.73
2022-12-03T23:50:40.099Z,82.84
2022-12-03T23:53:07.071Z,82.86
2022-12-03T23:55:33.722Z,82.72
2022-12-03T23:58:00.394Z,82.43
